Meally, KY (41234)

5:39 PM EST on January 28, 2015 (GMT -0500)
West Van Lear | Change Station
CLOSE
Current Station
Personal Weather Station
Location: West Van Lear, KY
Elevation: 610 ft
Nearby Weather Stations

Elev 610 ft 37.79 °N, 82.79 °W | Updated 4 minutes ago

Clear
Clear
34.2 °F
Feels Like 34 °F
N
1.7
Wind Variable Wind from SE

Today
High -- | Low -- °F
--% Chance of Precip.
Yesterday
High -- | Low -- °F
Precip. -- in
7:38 AM 5:49 PM
Waxing Gibbous, 68% visible
Pressure 30.29 in
Visibility 10.0 miles
Clouds Clear
Windchill 34 °F
Dew Point 23 °F
Humidity 62%
Rainfall 0.00 in
Snow Depth Not available.
UV 0 out of 12
Pollen .10 out of 12
Air Quality Not available.
Flu Activity Not available.
METAR KSJS 282215Z AUTO 00000KT 10SM CLR 00/M06 A3029 RMK AO2 T00041065

More Conditions Fewer Conditions

Pressure 30.29 in
Visibility 10.0 miles
Clouds Clear
Windchill 34 °F
Dew Point 23 °F
Humidity 62%
Rainfall 0.00 in
Snow Depth Not available.
UV 0 out of 12
Pollen .10 out of 12
Air Quality Not available.
Flu Activity Not available.
METAR KSJS 282215Z AUTO 00000KT 10SM CLR 00/M06 A3029 RMK AO2 T00041065

More Conditions Fewer Conditions

10-Day Weather Forecast

Almanac

Astronomy

Jan. 28, 2015 Rise Set
Actual Time
Civil Twilight
Nautical Twilight
Astronomical Twilight
Moon
Length of Visible Light
Length of Day
Tomorrow will be .
, % of the Moon is Illuminated

Today's Extremes

State Highs State Lows

Community

WunderPhotos

Upload Photos

1,791,286 photos uploaded!

WunderBlogs® & News

Nearby

Air Quality

  Air Quality AQ Index Pollutant
Not available.

Snow Depth

Station Depth Elevation

Earthquake Activity

City Distance Mag. Time & Date
Minimum magnitude displayed is 2.5.

Coastal Water Temperatures

Place Temperature

Nearby Weather Stations